createdAt,value
2016-10-29T00:00:20.604Z,15.64
2016-10-29T00:01:20.160Z,15.7
2016-10-29T00:02:20.262Z,15.65
2016-10-29T00:03:20.238Z,15.51
2016-10-29T00:04:20.383Z,15.62
2016-10-29T00:05:20.909Z,15.52
2016-10-29T00:06:20.923Z,15.54
2016-10-29T00:07:20.998Z,15.55
2016-10-29T00:08:20.513Z,15.51
2016-10-29T00:09:20.542Z,15.49
2016-10-29T00:10:20.600Z,15.62
2016-10-29T00:11:20.639Z,15.57
2016-10-29T00:12:20.811Z,15.64
2016-10-29T00:13:20.765Z,15.62
2016-10-29T00:14:20.797Z,15.73
2016-10-29T00:15:21.363Z,15.68
2016-10-29T00:16:20.869Z,15.77
2016-10-29T00:17:20.977Z,15.76
2016-10-29T00:18:21.052Z,15.82
2016-10-29T00:19:21.050Z,15.82
2016-10-29T00:20:21.201Z,15.64
2016-10-29T00:21:21.202Z,15.37
2016-10-29T00:22:21.182Z,15.37
2016-10-29T00:23:21.243Z,15.35
2016-10-29T00:24:21.298Z,15.31
2016-10-29T00:25:21.455Z,15.4
2016-10-29T00:26:21.404Z,15.46
2016-10-29T00:27:21.413Z,15.46
2016-10-29T00:28:21.533Z,15.47
2016-10-29T00:29:21.535Z,15.51
2016-10-29T00:30:21.711Z,15.58
2016-10-29T00:31:21.618Z,15.51
2016-10-29T00:32:21.685Z,15.58
2016-10-29T00:33:21.728Z,15.43
2016-10-29T00:34:21.755Z,15.44
2016-10-29T00:35:21.939Z,15.44
2016-10-29T00:36:21.894Z,15.43
2016-10-29T00:37:21.959Z,15.46
2016-10-29T00:38:22.065Z,15.44
2016-10-29T00:39:22.031Z,15.44
2016-10-29T00:40:22.148Z,15.33
2016-10-29T00:41:22.144Z,15.35
2016-10-29T00:42:22.223Z,15.22
2016-10-29T00:43:22.251Z,15.19
2016-10-29T00:44:22.278Z,15.33
2016-10-29T00:45:22.464Z,15.46
2016-10-29T00:46:22.343Z,15.36
2016-10-29T00:47:22.469Z,15.42
2016-10-29T00:48:22.559Z,15.46
2016-10-29T00:49:22.504Z,15.46
2016-10-29T00:50:22.531Z,15.44
2016-10-29T00:51:22.599Z,15.46
2016-10-29T00:52:23.143Z,15.51
2016-10-29T00:53:22.718Z,15.36
2016-10-29T00:54:22.733Z,15.33
2016-10-29T00:55:22.778Z,15.36
2016-10-29T00:56:22.867Z,15.35
2016-10-29T00:57:22.881Z,15.37
2016-10-29T00:58:22.936Z,15.29
2016-10-29T00:59:22.983Z,15.36
2016-10-29T01:00:23.023Z,15.49
2016-10-29T01:01:23.251Z,15.43
2016-10-29T01:02:23.222Z,15.43
2016-10-29T01:03:23.160Z,15.39
2016-10-29T01:04:23.237Z,15.11
2016-10-29T01:05:23.358Z,15.09
2016-10-29T01:06:23.408Z,15.22
2016-10-29T01:07:23.442Z,15.37
2016-10-29T01:08:23.420Z,15.43
2016-10-29T01:09:23.530Z,15.19
2016-10-29T01:10:23.511Z,15.21
2016-10-29T01:11:23.663Z,15.29
2016-10-29T01:12:23.659Z,15.25
2016-10-29T01:13:23.713Z,15.31
2016-10-29T01:14:23.722Z,15.42
2016-10-29T01:15:23.806Z,15.47
2016-10-29T01:16:23.841Z,15.51
2016-10-29T01:17:23.892Z,15.43
2016-10-29T01:18:23.929Z,15.47
2016-10-29T01:19:24.029Z,15.44
2016-10-29T01:20:23.989Z,15.43
2016-10-29T01:21:24.115Z,15.42
2016-10-29T01:22:24.680Z,15.47
2016-10-29T01:23:24.158Z,15.47
2016-10-29T01:24:24.204Z,15.51
2016-10-29T01:25:24.307Z,15.58
2016-10-29T01:26:24.434Z,15.52
2016-10-29T01:27:24.348Z,15.58
2016-10-29T01:28:24.394Z,15.37
2016-10-29T01:29:24.487Z,15.47
2016-10-29T01:30:24.535Z,15.43
2016-10-29T01:31:24.558Z,15.37
2016-10-29T01:32:24.694Z,15.21
2016-10-29T01:33:24.684Z,15.19
2016-10-29T01:34:24.681Z,15.21
2016-10-29T01:35:24.757Z,15.14
2016-10-29T01:36:24.804Z,15.14
2016-10-29T01:37:25.006Z,15.21
2016-10-29T01:38:24.952Z,15.06
2016-10-29T01:39:24.934Z,15.02
2016-10-29T01:40:25.507Z,14.97
2016-10-29T01:41:25.095Z,15.04
2016-10-29T01:42:25.165Z,15.11
2016-10-29T01:43:25.112Z,15.24
2016-10-29T01:44:25.154Z,15.06
2016-10-29T01:45:25.269Z,15.17
2016-10-29T01:46:25.248Z,15.14
2016-10-29T01:47:25.397Z,15.18
2016-10-29T01:48:25.376Z,15.31
2016-10-29T01:49:25.423Z,15.29
2016-10-29T01:50:25.497Z,15.24
2016-10-29T01:51:25.519Z,15.17
2016-10-29T01:52:25.624Z,15.22
2016-10-29T01:53:25.611Z,15.24
2016-10-29T01:54:25.666Z,15.25
2016-10-29T01:55:25.763Z,15.24
2016-10-29T01:56:25.807Z,15.02
2016-10-29T01:57:25.824Z,15.06
2016-10-29T01:58:25.884Z,15.04
2016-10-29T01:59:25.923Z,14.92
2016-10-29T02:00:25.978Z,14.92
2016-10-29T02:01:26.049Z,15
2016-10-29T02:02:26.060Z,15
2016-10-29T02:03:26.114Z,15.1
2016-10-29T02:04:26.706Z,15.11
2016-10-29T02:05:26.269Z,15.19
2016-10-29T02:06:26.293Z,15.33
2016-10-29T02:07:26.257Z,15.29
2016-10-29T02:08:26.498Z,15.21
2016-10-29T02:09:26.500Z,15.04
2016-10-29T02:10:26.464Z,14.96
2016-10-29T02:11:26.505Z,15.03
2016-10-29T02:12:26.571Z,15.22
2016-10-29T02:13:26.693Z,15.15
2016-10-29T02:14:26.638Z,15.18
2016-10-29T02:15:26.680Z,15.24
2016-10-29T02:16:27.272Z,15.21
2016-10-29T02:17:26.757Z,15.25
2016-10-29T02:18:26.973Z,15.24
2016-10-29T02:19:26.914Z,15.22
2016-10-29T02:20:26.963Z,15.21
2016-10-29T02:21:28.037Z,15.35
2016-10-29T02:22:27.010Z,15.33
2016-10-29T02:23:27.189Z,15.35
2016-10-29T02:24:27.222Z,15.27
2016-10-29T02:25:27.240Z,15.31
2016-10-29T02:26:27.249Z,15.18
2016-10-29T02:27:27.258Z,15.04
2016-10-29T02:28:27.500Z,14.91
2016-10-29T02:29:27.357Z,14.68
2016-10-29T02:30:27.439Z,14.68
2016-10-29T02:31:27.511Z,14.78
2016-10-29T02:32:27.515Z,14.92
2016-10-29T02:33:27.583Z,14.77
2016-10-29T02:34:27.608Z,14.84
2016-10-29T02:35:27.660Z,14.79
2016-10-29T02:36:27.697Z,14.79
2016-10-29T02:37:27.833Z,14.85
2016-10-29T02:38:27.793Z,14.84
2016-10-29T02:39:27.870Z,14.86
2016-10-29T02:40:27.894Z,14.89
2016-10-29T02:41:27.985Z,14.97
2016-10-29T02:42:28.010Z,14.97
2016-10-29T02:43:28.050Z,14.92
2016-10-29T02:44:28.225Z,15
2016-10-29T02:45:28.138Z,15.06
2016-10-29T02:46:28.186Z,15.1
2016-10-29T02:47:28.307Z,15.15
2016-10-29T02:48:28.352Z,15.03
2016-10-29T02:49:28.448Z,14.82
2016-10-29T02:50:28.397Z,14.88
2016-10-29T02:51:28.450Z,14.82
2016-10-29T02:52:28.467Z,14.94
2016-10-29T02:53:28.521Z,14.96
2016-10-29T02:54:28.707Z,15
2016-10-29T02:55:28.615Z,15.02
2016-10-29T02:56:28.695Z,14.97
2016-10-29T02:57:28.725Z,15.03
2016-10-29T02:58:28.774Z,15.04
2016-10-29T02:59:28.830Z,14.99
2016-10-29T03:00:28.901Z,15
2016-10-29T03:01:28.927Z,15.06
2016-10-29T03:02:28.974Z,15.06
2016-10-29T03:03:29.044Z,15.06
2016-10-29T03:04:29.056Z,15.06
2016-10-29T03:05:29.144Z,15.04
2016-10-29T03:06:29.156Z,14.99
2016-10-29T03:07:29.204Z,15
2016-10-29T03:08:29.256Z,15.06
2016-10-29T03:09:29.289Z,15.06
2016-10-29T03:10:29.361Z,15.07
2016-10-29T03:11:29.429Z,14.97
2016-10-29T03:12:29.515Z,15.04
2016-10-29T03:13:29.632Z,15.07
2016-10-29T03:14:29.578Z,15.14
2016-10-29T03:15:29.657Z,15.1
2016-10-29T03:16:29.664Z,15.04
2016-10-29T03:17:29.717Z,15.17
2016-10-29T03:18:29.813Z,15.09
2016-10-29T03:19:29.844Z,15.25
2016-10-29T03:20:29.938Z,15.24
2016-10-29T03:21:29.963Z,15.21
2016-10-29T03:22:29.934Z,15.27
2016-10-29T03:23:30.016Z,15.31
2016-10-29T03:24:30.058Z,15.35
2016-10-29T03:25:30.258Z,15.19
2016-10-29T03:26:30.128Z,15.25
2016-10-29T03:27:30.214Z,15.21
2016-10-29T03:28:30.236Z,15.17
2016-10-29T03:29:30.275Z,15.28
2016-10-29T03:30:30.978Z,15.15
2016-10-29T03:31:30.410Z,15.11
2016-10-29T03:32:30.446Z,15.09
2016-10-29T03:33:30.499Z,14.92
2016-10-29T03:34:30.603Z,14.99
2016-10-29T03:35:30.700Z,15.02
2016-10-29T03:36:30.676Z,15.04
2016-10-29T03:37:30.663Z,15.04
2016-10-29T03:38:30.768Z,15.09
2016-10-29T03:39:30.771Z,14.82
2016-10-29T03:40:31.029Z,14.81
2016-10-29T03:41:30.887Z,14.66
2016-10-29T03:42:30.974Z,14.7
2016-10-29T03:43:31.011Z,14.77
2016-10-29T03:44:31.068Z,14.72
2016-10-29T03:45:31.130Z,14.73
2016-10-29T03:46:31.157Z,14.86
2016-10-29T03:47:31.270Z,15.03
2016-10-29T03:48:31.265Z,14.99
2016-10-29T03:49:31.761Z,15.14
2016-10-29T03:50:31.322Z,15.04
2016-10-29T03:51:31.508Z,15.07
2016-10-29T03:52:31.468Z,14.92
2016-10-29T03:53:31.424Z,14.77
2016-10-29T03:54:31.533Z,14.78
2016-10-29T03:55:31.560Z,14.72
2016-10-29T03:56:31.725Z,14.85
2016-10-29T03:57:31.674Z,14.85
2016-10-29T03:58:31.687Z,14.94
2016-10-29T03:59:31.746Z,14.89
2016-10-29T04:00:31.861Z,15.02
2016-10-29T04:01:31.936Z,14.89
2016-10-29T04:02:31.914Z,14.73
2016-10-29T04:03:31.970Z,14.84
2016-10-29T04:04:32.010Z,14.86
2016-10-29T04:05:32.053Z,14.79
2016-10-29T04:06:32.207Z,14.84
2016-10-29T04:07:32.130Z,14.92
2016-10-29T04:08:32.252Z,15.03
2016-10-29T04:09:32.293Z,15.06
2016-10-29T04:10:32.313Z,15.07
2016-10-29T04:11:32.349Z,15.18
2016-10-29T04:12:32.413Z,15.14
2016-10-29T04:13:32.420Z,15.14
2016-10-29T04:14:32.609Z,14.97
2016-10-29T04:15:32.518Z,14.97
2016-10-29T04:16:32.584Z,14.84
2016-10-29T04:17:32.663Z,14.77
2016-10-29T04:18:32.679Z,14.79
2016-10-29T04:19:33.236Z,14.73
2016-10-29T04:20:32.778Z,14.81
2016-10-29T04:21:32.847Z,14.79
2016-10-29T04:22:32.899Z,14.78
2016-10-29T04:23:32.908Z,14.82
2016-10-29T04:24:33.051Z,14.82
2016-10-29T04:25:33.049Z,14.78
2016-10-29T04:26:33.056Z,14.82
2016-10-29T04:27:33.315Z,14.79
2016-10-29T04:28:33.146Z,14.79
2016-10-29T04:29:33.242Z,14.78
2016-10-29T04:30:33.242Z,14.84
2016-10-29T04:31:33.340Z,14.81
2016-10-29T04:32:33.533Z,14.82
2016-10-29T04:33:33.471Z,14.86
2016-10-29T04:34:33.490Z,14.81
2016-10-29T04:35:33.587Z,14.72
2016-10-29T04:36:33.555Z,14.69
2016-10-29T04:37:33.697Z,14.82
2016-10-29T04:38:33.672Z,14.86
2016-10-29T04:39:33.701Z,15
2016-10-29T04:40:33.796Z,14.88
2016-10-29T04:41:33.816Z,14.84
2016-10-29T04:42:33.842Z,14.84
2016-10-29T04:43:33.943Z,14.77
2016-10-29T04:44:33.999Z,14.81
2016-10-29T04:45:34.007Z,14.85
2016-10-29T04:46:34.084Z,14.7
2016-10-29T04:47:34.141Z,14.58
2016-10-29T04:48:34.130Z,14.45
2016-10-29T04:49:34.232Z,14.44
2016-10-29T04:50:34.250Z,14.6
2016-10-29T04:51:34.285Z,14.54
2016-10-29T04:52:34.330Z,14.44
2016-10-29T04:53:34.956Z,14.5
2016-10-29T04:54:34.461Z,14.51
2016-10-29T04:55:34.471Z,14.53
2016-10-29T04:56:34.528Z,14.44
2016-10-29T04:57:34.629Z,14.45
2016-10-29T04:58:34.713Z,14.48
2016-10-29T04:59:34.691Z,14.45
2016-10-29T05:00:34.741Z,14.51
2016-10-29T05:01:34.749Z,14.51
2016-10-29T05:02:34.908Z,14.51
2016-10-29T05:03:34.962Z,14.47
2016-10-29T05:04:34.995Z,14.45
2016-10-29T05:05:34.932Z,14.54
2016-10-29T05:06:35.018Z,14.51
2016-10-29T05:07:35.096Z,14.59
2016-10-29T05:08:35.829Z,14.53
2016-10-29T05:09:35.657Z,14.58
2016-10-29T05:10:35.191Z,14.62
2016-10-29T05:11:35.231Z,14.73
2016-10-29T05:12:35.414Z,14.77
2016-10-29T05:13:35.500Z,14.63
2016-10-29T05:14:35.408Z,14.68
2016-10-29T05:15:35.507Z,14.62
2016-10-29T05:16:35.475Z,14.77
2016-10-29T05:17:35.536Z,14.7
2016-10-29T05:18:35.685Z,14.81
2016-10-29T05:19:35.636Z,14.72
2016-10-29T05:20:35.736Z,14.77
2016-10-29T05:21:35.737Z,14.78
2016-10-29T05:22:35.857Z,14.77
2016-10-29T05:23:35.850Z,14.82
2016-10-29T05:24:35.900Z,14.84
2016-10-29T05:25:35.961Z,14.73
2016-10-29T05:26:35.966Z,14.78
2016-10-29T05:27:36.056Z,14.59
2016-10-29T05:28:36.078Z,14.5
2016-10-29T05:29:36.210Z,14.53
2016-10-29T05:30:36.195Z,14.54
2016-10-29T05:31:36.220Z,14.62
2016-10-29T05:32:36.350Z,14.6
2016-10-29T05:33:36.333Z,14.48
2016-10-29T05:34:36.470Z,14.54
2016-10-29T05:35:36.409Z,14.53
2016-10-29T05:36:36.520Z,14.37
2016-10-29T05:37:36.509Z,14.47
2016-10-29T05:38:36.589Z,14.5
2016-10-29T05:39:36.689Z,14.5
2016-10-29T05:40:36.684Z,14.4
2016-10-29T05:41:36.827Z,14.47
2016-10-29T05:42:36.778Z,14.43
2016-10-29T05:43:36.839Z,14.5
2016-10-29T05:44:36.983Z,14.36
2016-10-29T05:45:36.921Z,14.32
2016-10-29T05:46:36.945Z,14.44
2016-10-29T05:47:36.980Z,14.28
2016-10-29T05:48:37.029Z,14.36
2016-10-29T05:49:37.141Z,14.29
2016-10-29T05:50:37.165Z,14.4
2016-10-29T05:51:37.170Z,14.33
2016-10-29T05:52:37.272Z,14.37
2016-10-29T05:53:37.352Z,14.3
2016-10-29T05:54:37.341Z,14.32
2016-10-29T05:55:37.399Z,14.4
2016-10-29T05:56:37.493Z,14.44
2016-10-29T05:57:37.501Z,14.51
2016-10-29T05:58:37.542Z,14.69
2016-10-29T05:59:37.663Z,14.68
2016-10-29T06:00:37.710Z,14.65
2016-10-29T06:01:37.677Z,14.6
2016-10-29T06:02:37.773Z,14.7
2016-10-29T06:03:37.736Z,14.68
2016-10-29T06:04:37.835Z,14.77
2016-10-29T06:05:38.052Z,14.89
2016-10-29T06:06:37.923Z,14.85
2016-10-29T06:07:38.017Z,14.82
2016-10-29T06:08:38.043Z,14.78
2016-10-29T06:09:38.224Z,14.82
2016-10-29T06:10:38.221Z,14.85
2016-10-29T06:11:38.248Z,14.78
2016-10-29T06:12:38.178Z,14.69
2016-10-29T06:13:38.321Z,14.81
2016-10-29T06:14:38.331Z,14.77
2016-10-29T06:15:38.490Z,14.77
2016-10-29T06:16:38.529Z,14.65
2016-10-29T06:17:38.529Z,14.54
2016-10-29T06:18:38.502Z,14.54
2016-10-29T06:19:38.536Z,14.63
2016-10-29T06:20:38.663Z,14.66
2016-10-29T06:21:38.633Z,14.66
2016-10-29T06:22:38.690Z,14.65
2016-10-29T06:23:38.753Z,14.59
2016-10-29T06:24:38.766Z,14.58
2016-10-29T06:25:38.902Z,14.58
2016-10-29T06:26:38.885Z,14.54
2016-10-29T06:27:39.009Z,14.48
2016-10-29T06:28:39.007Z,14.5
2016-10-29T06:29:39.109Z,14.54
2016-10-29T06:30:39.065Z,14.58
2016-10-29T06:31:39.262Z,14.53
2016-10-29T06:32:39.179Z,14.66
2016-10-29T06:33:39.212Z,14.6
2016-10-29T06:34:39.260Z,14.48
2016-10-29T06:35:39.362Z,14.51
2016-10-29T06:36:39.488Z,14.48
2016-10-29T06:37:39.443Z,14.51
2016-10-29T06:38:39.492Z,14.47
2016-10-29T06:39:39.606Z,14.37
2016-10-29T06:40:39.623Z,14.37
2016-10-29T06:41:39.711Z,14.4
2016-10-29T06:42:39.727Z,14.44
2016-10-29T06:43:39.741Z,14.41
2016-10-29T06:44:39.818Z,14.33
2016-10-29T06:45:39.800Z,14.23
2016-10-29T06:46:40.086Z,14.25
2016-10-29T06:47:39.941Z,14.4
2016-10-29T06:48:40.032Z,14.41
2016-10-29T06:49:40.033Z,14.37
2016-10-29T06:50:40.058Z,14.28
2016-10-29T06:51:40.105Z,14.18
2016-10-29T06:52:40.141Z,14.25
2016-10-29T06:53:40.212Z,14.3
2016-10-29T06:54:40.288Z,14.43
2016-10-29T06:55:40.355Z,14.4
2016-10-29T06:56:40.349Z,14.37
2016-10-29T06:57:40.404Z,14.29
2016-10-29T06:58:40.498Z,14.29
2016-10-29T06:59:40.515Z,14.32
2016-10-29T07:00:40.596Z,14.36
2016-10-29T07:01:40.597Z,14.48
2016-10-29T07:02:40.739Z,14.41
2016-10-29T07:03:40.687Z,14.45
2016-10-29T07:04:40.766Z,14.41
2016-10-29T07:05:40.835Z,14.36
2016-10-29T07:06:40.849Z,14.3
2016-10-29T07:07:40.979Z,14.43
2016-10-29T07:08:40.987Z,14.33
2016-10-29T07:09:41.604Z,14.32
2016-10-29T07:10:41.051Z,14.43
2016-10-29T07:11:41.076Z,14.41
2016-10-29T07:12:41.331Z,14.44
2016-10-29T07:13:41.180Z,14.36
2016-10-29T07:14:41.330Z,14.33
2016-10-29T07:15:41.354Z,14.32
2016-10-29T07:16:41.317Z,14.22
2016-10-29T07:17:41.423Z,14.35
2016-10-29T07:18:41.473Z,14.33
2016-10-29T07:19:41.454Z,14.32
2016-10-29T07:20:41.524Z,14.36
2016-10-29T07:21:41.538Z,14.44
2016-10-29T07:22:41.603Z,14.44
2016-10-29T07:23:41.689Z,14.58
2016-10-29T07:24:41.767Z,14.48
2016-10-29T07:25:41.830Z,14.51
2016-10-29T07:26:41.813Z,14.47
2016-10-29T07:27:41.845Z,14.51
2016-10-29T07:28:41.952Z,14.41
2016-10-29T07:29:42.018Z,14.37
2016-10-29T07:30:42.012Z,14.47
2016-10-29T07:31:42.062Z,14.41
2016-10-29T07:32:42.102Z,14.45
2016-10-29T07:33:42.271Z,14.5
2016-10-29T07:34:42.270Z,14.41
2016-10-29T07:35:42.265Z,14.36
2016-10-29T07:36:42.274Z,14.44
2016-10-29T07:37:42.335Z,14.44
2016-10-29T07:38:42.482Z,14.4
2016-10-29T07:39:42.469Z,14.37
2016-10-29T07:40:42.466Z,14.55
2016-10-29T07:41:42.534Z,14.47
2016-10-29T07:42:42.607Z,14.47
2016-10-29T07:43:42.735Z,14.45
2016-10-29T07:44:42.661Z,14.33
2016-10-29T07:45:42.764Z,14.36
2016-10-29T07:46:42.769Z,14.43
2016-10-29T07:47:42.822Z,14.36
2016-10-29T07:48:42.977Z,14.33
2016-10-29T07:49:42.896Z,14.37
2016-10-29T07:50:42.971Z,14.36
2016-10-29T07:51:43.017Z,14.36
2016-10-29T07:52:43.057Z,14.44
2016-10-29T07:53:43.216Z,14.53
2016-10-29T07:54:43.198Z,14.5
2016-10-29T07:55:43.771Z,14.53
2016-10-29T07:56:43.240Z,14.5
2016-10-29T07:57:43.300Z,14.62
2016-10-29T07:58:43.484Z,14.53
2016-10-29T07:59:43.376Z,14.51
2016-10-29T08:00:43.449Z,14.59
2016-10-29T08:01:43.509Z,14.51
2016-10-29T08:02:43.582Z,14.54
2016-10-29T08:03:43.626Z,14.48
2016-10-29T08:04:43.653Z,14.58
2016-10-29T08:05:43.705Z,14.58
2016-10-29T08:06:43.764Z,14.55
2016-10-29T08:07:43.843Z,14.48
2016-10-29T08:08:43.873Z,14.54
2016-10-29T08:09:43.924Z,14.5
2016-10-29T08:10:43.971Z,14.55
2016-10-29T08:11:43.970Z,14.55
2016-10-29T08:12:44.011Z,14.5
2016-10-29T08:13:44.103Z,14.59
2016-10-29T08:14:44.234Z,14.45
2016-10-29T08:15:44.223Z,14.44
2016-10-29T08:16:44.209Z,14.4
2016-10-29T08:17:44.259Z,14.5
2016-10-29T08:18:44.308Z,14.43
2016-10-29T08:19:44.481Z,14.35
2016-10-29T08:20:44.414Z,14.35
2016-10-29T08:21:44.505Z,14.2
2016-10-29T08:22:44.534Z,14.25
2016-10-29T08:23:44.589Z,14.26
2016-10-29T08:24:44.720Z,14.36
2016-10-29T08:25:44.645Z,14.25
2016-10-29T08:26:44.721Z,14.26
2016-10-29T08:27:44.806Z,14.33
2016-10-29T08:28:44.816Z,14.5
2016-10-29T08:29:44.846Z,14.37
2016-10-29T08:30:44.909Z,14.33
2016-10-29T08:31:44.971Z,14.37
2016-10-29T08:32:45.036Z,14.36
2016-10-29T08:33:45.102Z,14.28
2016-10-29T08:34:45.098Z,14.26
2016-10-29T08:35:45.127Z,14.28
2016-10-29T08:36:45.243Z,14.25
2016-10-29T08:37:45.262Z,14.15
2016-10-29T08:38:45.287Z,14.17
2016-10-29T08:39:45.404Z,14.26
2016-10-29T08:40:45.542Z,14.36
2016-10-29T08:41:45.492Z,14.44
2016-10-29T08:42:45.508Z,14.41
2016-10-29T08:43:45.541Z,14.4
2016-10-29T08:44:45.576Z,14.4
2016-10-29T08:45:46.270Z,14.35
2016-10-29T08:46:45.681Z,14.43
2016-10-29T08:47:45.728Z,14.48
2016-10-29T08:48:45.792Z,14.48
2016-10-29T08:49:45.859Z,14.55
2016-10-29T08:50:45.994Z,14.55
2016-10-29T08:51:45.942Z,14.66
2016-10-29T08:52:45.973Z,14.69
2016-10-29T08:53:46.052Z,14.63
2016-10-29T08:54:46.613Z,14.68
2016-10-29T08:55:46.159Z,14.79
2016-10-29T08:56:46.202Z,14.7
2016-10-29T08:57:46.774Z,14.62
2016-10-29T08:58:46.300Z,14.62
2016-10-29T08:59:46.300Z,14.66
2016-10-29T09:00:46.400Z,14.47
2016-10-29T09:01:46.406Z,14.37
2016-10-29T09:02:46.470Z,14.32
2016-10-29T09:03:46.504Z,14.36
2016-10-29T09:04:46.586Z,14.45
2016-10-29T09:05:46.637Z,14.53
2016-10-29T09:06:46.765Z,14.5
2016-10-29T09:07:46.714Z,14.51
2016-10-29T09:08:46.785Z,14.59
2016-10-29T09:09:46.805Z,14.66
2016-10-29T09:10:46.843Z,14.66
2016-10-29T09:11:46.984Z,14.88
2016-10-29T09:12:46.957Z,14.96
2016-10-29T09:13:47.042Z,15.03
2016-10-29T09:14:47.071Z,15.07
2016-10-29T09:15:47.072Z,15.17
2016-10-29T09:16:47.819Z,15.15
2016-10-29T09:17:47.214Z,15.27
2016-10-29T09:18:47.295Z,15.22
2016-10-29T09:19:47.319Z,15.47
2016-10-29T09:20:47.355Z,15.42
2016-10-29T09:21:47.478Z,15.4
2016-10-29T09:22:47.461Z,15.49
2016-10-29T09:23:47.513Z,15.51
2016-10-29T09:24:47.563Z,15.65
2016-10-29T09:25:47.657Z,15.79
2016-10-29T09:26:47.727Z,15.8
2016-10-29T09:27:47.717Z,15.8
2016-10-29T09:28:47.771Z,15.84
2016-10-29T09:29:47.820Z,16.16
2016-10-29T09:30:47.855Z,16.36
2016-10-29T09:31:47.919Z,16.41
2016-10-29T09:32:47.947Z,16.42
2016-10-29T09:33:48.048Z,16.42
2016-10-29T09:34:48.043Z,16.43
2016-10-29T09:35:48.166Z,16.64
2016-10-29T09:36:48.175Z,16.83
2016-10-29T09:37:48.234Z,17.01
2016-10-29T09:38:48.260Z,17.3
2016-10-29T09:39:48.342Z,17.45
2016-10-29T09:40:48.375Z,17.59
2016-10-29T09:41:48.961Z,17.7
2016-10-29T09:42:48.489Z,17.67
2016-10-29T09:43:48.536Z,17.71
2016-10-29T09:44:48.574Z,17.49
2016-10-29T09:45:48.664Z,17.26
2016-10-29T09:46:48.705Z,16.89
2016-10-29T09:47:48.862Z,16.83
2016-10-29T09:48:48.779Z,16.72
2016-10-29T09:49:48.883Z,16.54
2016-10-29T09:50:49.486Z,16.5
2016-10-29T09:51:48.961Z,16.13
2016-10-29T09:52:49.153Z,15.98
2016-10-29T09:53:49.076Z,15.97
2016-10-29T09:54:49.160Z,15.75
2016-10-29T09:55:49.159Z,15.9
2016-10-29T09:56:49.231Z,15.86
2016-10-29T09:57:49.412Z,16.01
2016-10-29T09:58:49.289Z,16.09
2016-10-29T09:59:49.362Z,16.28
2016-10-29T10:00:49.412Z,16.57
2016-10-29T10:01:49.486Z,16.94
2016-10-29T10:02:49.637Z,17.23
2016-10-29T10:03:49.595Z,17.19
2016-10-29T10:04:49.612Z,17.3
2016-10-29T10:05:49.670Z,17.44
2016-10-29T10:06:49.727Z,17.48
2016-10-29T10:07:49.791Z,17.51
2016-10-29T10:08:49.862Z,17.56
2016-10-29T10:09:49.870Z,17.46
2016-10-29T10:10:49.936Z,17.51
2016-10-29T10:11:50.015Z,17.54
2016-10-29T10:12:50.075Z,17.63
2016-10-29T10:13:50.090Z,17.6
2016-10-29T10:14:50.160Z,17.57
2016-10-29T10:15:50.219Z,17.82
2016-10-29T10:16:50.224Z,17.98
2016-10-29T10:17:50.305Z,17.87
2016-10-29T10:18:50.383Z,17.72
2016-10-29T10:19:50.408Z,17.52
2016-10-29T10:20:50.477Z,17.34
2016-10-29T10:21:50.561Z,17.24
2016-10-29T10:22:50.540Z,17.29
2016-10-29T10:23:50.809Z,17.2
2016-10-29T10:24:50.652Z,17.19
2016-10-29T10:25:50.710Z,17.01
2016-10-29T10:26:50.787Z,17.2
2016-10-29T10:27:50.860Z,17.26
2016-10-29T10:28:50.987Z,17.23
2016-10-29T10:29:50.936Z,17.26
2016-10-29T10:30:50.972Z,17.49
2016-10-29T10:31:50.998Z,17.59
2016-10-29T10:32:51.043Z,17.67
2016-10-29T10:33:51.195Z,17.71
2016-10-29T10:34:51.204Z,17.63
2016-10-29T10:35:51.200Z,17.6
2016-10-29T10:36:51.295Z,17.29
2016-10-29T10:37:51.318Z,17.14
2016-10-29T10:38:51.404Z,16.97
2016-10-29T10:39:51.435Z,17.01
2016-10-29T10:40:51.471Z,17.12
2016-10-29T10:41:51.546Z,17.16
2016-10-29T10:42:51.591Z,17.27
2016-10-29T10:43:51.631Z,16.93
2016-10-29T10:44:51.696Z,16.94
2016-10-29T10:45:51.746Z,16.97
2016-10-29T10:46:51.771Z,17.11
2016-10-29T10:47:51.793Z,17.15
2016-10-29T10:48:51.891Z,17.3
2016-10-29T10:49:52.019Z,17.38
2016-10-29T10:50:51.967Z,17.34
2016-10-29T10:51:52.029Z,17.36
2016-10-29T10:52:52.045Z,17.33
2016-10-29T10:53:52.150Z,17.24
2016-10-29T10:54:52.271Z,17.34
2016-10-29T10:55:52.221Z,17.57
2016-10-29T10:56:52.243Z,17.74
2016-10-29T10:57:52.303Z,17.89
2016-10-29T10:58:52.857Z,18.01
2016-10-29T10:59:52.552Z,18.13
2016-10-29T11:00:52.491Z,18.18
2016-10-29T11:01:52.534Z,18.15
2016-10-29T11:02:52.587Z,18.19
2016-10-29T11:03:53.181Z,18.1
2016-10-29T11:04:52.820Z,18.18
2016-10-29T11:05:52.746Z,18.19
2016-10-29T11:06:52.804Z,18.13
2016-10-29T11:07:52.868Z,18.25
2016-10-29T11:08:52.868Z,18.03
2016-10-29T11:09:52.948Z,18.05
2016-10-29T11:10:52.964Z,17.98
2016-10-29T11:11:53.060Z,18
2016-10-29T11:12:53.096Z,18.1
2016-10-29T11:13:53.689Z,18.23
2016-10-29T11:14:53.196Z,18.16
2016-10-29T11:15:53.231Z,18.16
2016-10-29T11:16:53.284Z,18.13
2016-10-29T11:17:53.363Z,18.1
2016-10-29T11:18:53.386Z,18.2
2016-10-29T11:19:53.441Z,18.2
2016-10-29T11:20:53.484Z,18.18
2016-10-29T11:21:53.544Z,18.2
2016-10-29T11:22:53.600Z,18.1
2016-10-29T11:23:53.622Z,18.18
2016-10-29T11:24:53.672Z,18.16
2016-10-29T11:25:53.889Z,18.13
2016-10-29T11:26:53.780Z,18.13
2016-10-29T11:27:53.867Z,18.13
2016-10-29T11:28:53.866Z,18.08
2016-10-29T11:29:53.945Z,18.07
2016-10-29T11:30:54.098Z,17.98
2016-10-29T11:31:54.058Z,18.07
2016-10-29T11:32:54.624Z,18.05
2016-10-29T11:33:54.150Z,18.08
2016-10-29T11:34:54.746Z,18.1
2016-10-29T11:35:54.858Z,18.13
2016-10-29T11:36:54.296Z,18.11
2016-10-29T11:37:54.887Z,18.1
2016-10-29T11:38:54.411Z,17.92
2016-10-29T11:39:54.456Z,18.01
2016-10-29T11:40:54.617Z,18.13
2016-10-29T11:41:54.554Z,18.35
2016-10-29T11:42:54.600Z,18.35
2016-10-29T11:43:54.703Z,18.35
2016-10-29T11:44:54.690Z,18.44
2016-10-29T11:45:54.869Z,18.5
2016-10-29T11:46:54.827Z,18.75
2016-10-29T11:47:54.872Z,18.63
2016-10-29T11:48:54.907Z,18.71
2016-10-29T11:49:54.983Z,18.8
2016-10-29T11:50:55.505Z,18.95
2016-10-29T11:51:55.068Z,19.14
2016-10-29T11:52:55.101Z,19.21
2016-10-29T11:53:55.162Z,19.14
2016-10-29T11:54:55.204Z,19.11
2016-10-29T11:55:55.812Z,19.12
2016-10-29T11:56:55.328Z,19.02
2016-10-29T11:57:55.916Z,18.89
2016-10-29T11:58:55.440Z,18.84
2016-10-29T11:59:55.442Z,18.86
2016-10-29T12:00:55.523Z,18.99
2016-10-29T12:01:55.645Z,18.93
2016-10-29T12:02:55.620Z,18.98
2016-10-29T12:03:55.646Z,19.04
2016-10-29T12:04:56.234Z,19.15
2016-10-29T12:05:55.780Z,19.29
2016-10-29T12:06:55.910Z,19.19
2016-10-29T12:07:55.854Z,19.11
2016-10-29T12:08:55.937Z,19.08
2016-10-29T12:09:55.975Z,19.33
2016-10-29T12:10:55.996Z,19.4
2016-10-29T12:11:56.133Z,19.52
2016-10-29T12:12:56.127Z,19.64
2016-10-29T12:13:56.179Z,19.71
2016-10-29T12:14:56.214Z,19.76
2016-10-29T12:15:56.290Z,19.79
2016-10-29T12:16:56.858Z,19.62
2016-10-29T12:17:56.354Z,19.39
2016-10-29T12:18:56.435Z,19.51
2016-10-29T12:19:56.505Z,19.49
2016-10-29T12:20:56.554Z,19.52
2016-10-29T12:21:56.607Z,19.47
2016-10-29T12:22:56.658Z,19.36
2016-10-29T12:23:56.674Z,19.4
2016-10-29T12:24:57.310Z,19.37
2016-10-29T12:25:56.802Z,19.19
2016-10-29T12:26:56.825Z,19.29
2016-10-29T12:27:56.870Z,19.22
2016-10-29T12:28:56.952Z,19.27
2016-10-29T12:29:57.048Z,19.36
2016-10-29T12:30:57.045Z,19.47
2016-10-29T12:31:57.075Z,19.27
2016-10-29T12:32:57.220Z,19.33
2016-10-29T12:33:57.164Z,19.31
2016-10-29T12:34:57.252Z,19.4
2016-10-29T12:35:57.267Z,19.52
2016-10-29T12:36:57.344Z,19.58
2016-10-29T12:37:57.472Z,19.59
2016-10-29T12:38:57.466Z,19.71
2016-10-29T12:39:57.539Z,19.67
2016-10-29T12:40:57.552Z,19.81
2016-10-29T12:41:57.629Z,19.92
2016-10-29T12:42:57.767Z,19.82
2016-10-29T12:43:57.681Z,19.77
2016-10-29T12:44:57.772Z,19.69
2016-10-29T12:45:57.821Z,19.79
2016-10-29T12:46:57.855Z,19.81
2016-10-29T12:47:58.014Z,19.89
2016-10-29T12:48:57.927Z,19.92
2016-10-29T12:49:57.951Z,19.91
2016-10-29T12:50:58.044Z,20.03
2016-10-29T12:51:58.095Z,20.03
2016-10-29T12:52:58.153Z,20.09
2016-10-29T12:53:58.189Z,20.24
2016-10-29T12:54:58.274Z,20.32
2016-10-29T12:55:58.286Z,20.25